Time;durP1;ratioP1;P1;durP2;ratioP2;P2;SDS_P1;SDS_P2;PMS_P1;PMS_P2;Temp;Humidity;BMP_temperature;BMP_pressure;BME280_temperature;BME280_humidity;BME280_pressure;Samples;Min_cycle;Max_cycle;Signal;HPM_P1;HPM_P2
2021/03/16 00:02:03;;;;;;;24.50;4.70;;;5.00;85.90;;;;;;5050228;28;20381;-81
2021/03/16 00:04:29;;;;;;;36.67;4.93;;;4.90;86.50;;;;;;5050076;28;20393;-81
2021/03/16 00:06:54;;;;;;;22.55;4.35;;;4.90;86.10;;;;;;5048335;28;20377;-82
2021/03/16 00:09:20;;;;;;;25.60;3.88;;;4.90;86.20;;;;;;5050330;28;20970;-81
2021/03/16 00:11:46;;;;;;;23.30;3.35;;;5.00;85.20;;;;;;5049935;28;20386;-81
2021/03/16 00:14:11;;;;;;;26.48;3.80;;;4.90;85.20;;;;;;5050601;28;20417;-82
2021/03/16 00:16:37;;;;;;;21.23;3.00;;;5.00;84.60;;;;;;5048350;28;20381;-81
2021/03/16 00:19:02;;;;;;;27.47;3.90;;;4.90;85.10;;;;;;5050200;28;20870;-82
2021/03/16 00:21:28;;;;;;;21.27;3.67;;;4.90;84.60;;;;;;5048626;28;20857;-83
2021/03/16 00:23:53;;;;;;;17.50;2.67;;;4.90;83.00;;;;;;5050745;28;20496;-83
2021/03/16 00:26:19;;;;;;;24.37;3.00;;;4.90;82.80;;;;;;5050005;28;20390;-84
2021/03/16 00:28:44;;;;;;;17.97;2.37;;;4.90;82.30;;;;;;5049915;28;20373;-83
2021/03/16 00:31:10;;;;;;;14.40;1.87;;;4.90;82.20;;;;;;5049627;28;20529;-83
2021/03/16 00:33:35;;;;;;;21.23;2.83;;;4.80;82.10;;;;;;5050025;28;20424;-83
2021/03/16 00:36:01;;;;;;;24.77;3.92;;;4.90;82.20;;;;;;5050239;28;20378;-82
2021/03/16 00:38:27;;;;;;;27.83;2.95;;;4.90;82.00;;;;;;5049431;28;20400;-82
2021/03/16 00:40:52;;;;;;;26.77;3.00;;;4.90;81.90;;;;;;5049936;28;20456;-82
2021/03/16 00:43:18;;;;;;;16.67;2.57;;;4.90;82.10;;;;;;5048640;28;20389;-82
2021/03/16 00:45:44;;;;;;;22.70;3.07;;;4.80;82.40;;;;;;5048972;28;20373;-83
2021/03/16 00:48:18;;;;;;;23.50;2.40;;;4.70;82.60;;;;;;5049584;28;20381;-83
2021/03/16 00:50:44;;;;;;;18.50;2.63;;;4.80;82.00;;;;;;5050009;28;20469;-83
2021/03/16 00:53:09;;;;;;;26.48;2.72;;;4.90;81.80;;;;;;5048140;28;20468;-82
2021/03/16 00:55:36;;;;;;;17.00;2.78;;;4.90;81.90;;;;;;5050173;28;20424;-83
2021/03/16 00:58:02;;;;;;;21.30;2.50;;;4.80;82.30;;;;;;5047875;28;20854;-83
2021/03/16 01:00:28;;;;;;;21.65;2.80;;;4.80;82.50;;;;;;5049743;28;20500;-83
2021/03/16 01:02:54;;;;;;;26.65;3.55;;;4.80;82.60;;;;;;5049831;28;20789;-83
2021/03/16 01:05:19;;;;;;;18.58;2.55;;;4.80;82.50;;;;;;5048322;28;20397;-83
2021/03/16 01:07:45;;;;;;;20.85;3.30;;;4.70;83.00;;;;;;5049034;28;20409;-83
2021/03/16 01:10:14;;;;;;;26.37;2.90;;;4.80;82.30;;;;;;5050954;28;20393;-83
2021/03/16 01:12:41;;;;;;;27.27;3.28;;;4.80;82.40;;;;;;5052083;28;20385;-83
2021/03/16 01:15:07;;;;;;;19.85;2.72;;;4.80;82.30;;;;;;5051907;28;20381;-83
2021/03/16 01:17:32;;;;;;;21.38;2.33;;;4.80;82.60;;;;;;5052867;28;20748;-83
2021/03/16 01:19:58;;;;;;;22.83;3.38;;;4.80;82.90;;;;;;5053171;28;20412;-83
2021/03/16 01:22:23;;;;;;;18.75;2.88;;;4.80;83.20;;;;;;5053101;28;20472;-83
2021/03/16 01:24:49;;;;;;;20.13;3.22;;;4.80;83.20;;;;;;5051736;28;20806;-83
2021/03/16 01:27:14;;;;;;;22.90;3.33;;;4.80;83.10;;;;;;5052863;28;20382;-83
2021/03/16 01:29:40;;;;;;;22.53;2.73;;;4.80;83.20;;;;;;5052563;28;20378;-83
2021/03/16 01:32:06;;;;;;;18.47;2.83;;;4.80;83.30;;;;;;5051717;28;20397;-84
2021/03/16 01:34:32;;;;;;;21.27;3.00;;;4.70;83.20;;;;;;5053083;28;20377;-83
2021/03/16 01:36:57;;;;;;;12.00;2.47;;;4.90;81.10;;;;;;5052380;28;20889;-83
2021/03/16 01:39:23;;;;;;;15.35;2.67;;;4.90;80.30;;;;;;5052932;28;20420;-83
2021/03/16 01:41:48;;;;;;;29.80;2.95;;;4.90;80.80;;;;;;5052782;28;20451;-83
2021/03/16 01:44:14;;;;;;;20.60;3.22;;;4.90;82.10;;;;;;5052902;28;20388;-83
2021/03/16 01:46:40;;;;;;;18.07;2.63;;;4.80;82.30;;;;;;5052045;28;20385;-82
2021/03/16 01:49:06;;;;;;;21.55;2.80;;;4.80;82.40;;;;;;5052703;28;20381;-83
2021/03/16 01:51:32;;;;;;;21.17;3.17;;;4.90;81.60;;;;;;5052500;28;20698;-83
2021/03/16 01:53:57;;;;;;;22.93;3.00;;;4.90;81.60;;;;;;5052857;28;20427;-83
2021/03/16 01:56:24;;;;;;;18.40;2.53;;;4.80;82.30;;;;;;5052384;28;20393;-83
2021/03/16 01:58:54;;;;;;;19.23;2.22;;;4.90;82.20;;;;;;5052408;28;20409;-83
2021/03/16 02:01:20;;;;;;;16.13;3.25;;;4.90;82.00;;;;;;5052229;28;20381;-83
2021/03/16 02:03:46;;;;;;;21.10;2.80;;;4.90;82.20;;;;;;5052377;28;20457;-83
2021/03/16 02:06:19;;;;;;;26.07;3.50;;;4.90;82.20;;;;;;5052493;28;20457;-83
2021/03/16 02:09:02;;;;;;;19.23;2.40;;;4.90;82.10;;;;;;5051956;28;20769;-83
2021/03/16 02:11:47;;;;;;;16.73;3.80;;;4.90;81.60;;;;;;5052223;28;20472;-83
2021/03/16 02:14:19;;;;;;;23.13;3.15;;;4.90;81.50;;;;;;5052374;28;20377;-83
2021/03/16 02:17:00;;;;;;;20.25;2.70;;;4.90;81.40;;;;;;5052139;28;20369;-83
2021/03/16 02:19:50;;;;;;;20.27;2.35;;;4.90;79.10;;;;;;5052198;28;20409;-83
2021/03/16 02:22:17;;;;;;;14.60;1.98;;;5.00;78.40;;;;;;5049293;28;20393;-82
2021/03/16 02:25:19;;;;;;;17.80;1.95;;;5.00;77.20;;;;;;5052593;28;20381;-83
2021/03/16 02:27:56;;;;;;;18.47;3.17;;;5.00;77.80;;;;;;5051482;28;20459;-84
2021/03/16 02:30:22;;;;;;;15.98;2.10;;;4.90;78.40;;;;;;5052181;28;20392;-83
2021/03/16 02:32:49;;;;;;;25.17;3.60;;;5.00;78.40;;;;;;5051302;28;20488;-83
2021/03/16 02:35:18;;;;;;;17.67;2.40;;;4.90;79.20;;;;;;5052039;28;20377;-83
2021/03/16 02:37:45;;;;;;;18.90;2.13;;;4.90;78.90;;;;;;5051731;28;20390;-83
2021/03/16 02:40:14;;;;;;;21.20;3.15;;;4.90;78.90;;;;;;5051999;28;20401;-83
2021/03/16 02:42:41;;;;;;;13.20;1.92;;;4.90;79.10;;;;;;5052303;28;20436;-83
2021/03/16 02:45:09;;;;;;;14.15;2.55;;;4.90;79.40;;;;;;5051990;28;20386;-83
2021/03/16 02:47:36;;;;;;;20.70;2.38;;;4.90;78.90;;;;;;5050315;28;20436;-83
2021/03/16 02:50:02;;;;;;;18.95;2.15;;;4.90;79.20;;;;;;5051853;28;20411;-83
2021/03/16 02:52:29;;;;;;;18.88;3.00;;;4.90;78.30;;;;;;5051741;28;20377;-83
2021/03/16 02:54:56;;;;;;;13.43;2.13;;;4.90;77.60;;;;;;5051742;28;20409;-83
2021/03/16 02:57:23;;;;;;;18.90;1.83;;;4.90;77.30;;;;;;5049445;28;20920;-81
2021/03/16 02:59:50;;;;;;;18.65;2.10;;;4.90;78.20;;;;;;5051654;28;20435;-83
2021/03/16 03:02:16;;;;;;;16.48;2.70;;;4.90;78.90;;;;;;5051340;28;20647;-83
2021/03/16 03:04:44;;;;;;;17.60;1.93;;;4.90;78.80;;;;;;5050106;28;20464;-83
2021/03/16 03:07:14;;;;;;;15.00;2.13;;;4.90;79.40;;;;;;5049347;28;20381;-83
2021/03/16 03:09:40;;;;;;;15.88;1.92;;;4.80;79.90;;;;;;5051559;28;20468;-81
2021/03/16 03:12:07;;;;;;;14.80;2.80;;;4.80;80.40;;;;;;5051470;28;20738;-83
2021/03/16 03:14:34;;;;;;;16.17;2.50;;;4.80;80.40;;;;;;5051545;28;20380;-83
2021/03/16 03:17:00;;;;;;;16.65;2.17;;;4.80;80.50;;;;;;5049512;28;20381;-83
2021/03/16 03:19:26;;;;;;;14.70;2.22;;;4.70;81.60;;;;;;5049776;28;20821;-83
2021/03/16 03:22:00;;;;;;;14.17;2.60;;;4.80;81.90;;;;;;5051117;28;20428;-83
2021/03/16 03:24:33;;;;;;;27.17;3.97;;;4.80;82.10;;;;;;5049548;28;20385;-83
2021/03/16 03:27:06;;;;;;;23.85;2.90;;;4.70;82.70;;;;;;5049476;28;20432;-83
2021/03/16 03:29:33;;;;;;;33.65;3.53;;;4.70;83.40;;;;;;5050556;28;20393;-82
2021/03/16 03:32:00;;;;;;;20.15;3.13;;;4.70;83.70;;;;;;5049359;28;20393;-83
2021/03/16 03:34:26;;;;;;;20.90;3.10;;;4.70;83.60;;;;;;5050395;28;20412;-83
2021/03/16 03:36:57;;;;;;;22.77;3.20;;;4.80;83.80;;;;;;5050467;28;20789;-82
2021/03/16 03:39:24;;;;;;;21.63;3.80;;;4.60;84.50;;;;;;5050383;28;20555;-82
2021/03/16 03:41:54;;;;;;;28.42;3.72;;;4.70;84.10;;;;;;5049513;28;20413;-82
2021/03/16 03:44:24;;;;;;;24.08;3.13;;;4.70;84.50;;;;;;5050461;28;20426;-82
2021/03/16 03:46:51;;;;;;;13.75;2.92;;;4.70;84.30;;;;;;5050371;28;20483;-82
2021/03/16 03:49:18;;;;;;;18.17;2.77;;;4.70;84.60;;;;;;5050685;28;20377;-82
2021/03/16 03:51:45;;;;;;;28.38;3.25;;;4.70;84.80;;;;;;5048963;28;20723;-82
2021/03/16 03:54:11;;;;;;;20.98;3.60;;;4.70;85.10;;;;;;5049369;28;20771;-82
2021/03/16 03:56:38;;;;;;;22.05;3.55;;;4.60;85.10;;;;;;5050144;28;20427;-83
2021/03/16 03:59:05;;;;;;;23.55;2.97;;;4.70;85.00;;;;;;5050465;28;20456;-82
2021/03/16 04:01:31;;;;;;;21.70;3.17;;;4.70;84.80;;;;;;5050097;28;20381;-83
2021/03/16 04:03:59;;;;;;;17.02;2.70;;;4.70;85.70;;;;;;5050861;28;20718;-82
2021/03/16 04:06:26;;;;;;;22.42;3.53;;;4.70;85.10;;;;;;5049841;28;20380;-82
2021/03/16 04:08:53;;;;;;;14.75;3.00;;;4.70;85.40;;;;;;5048510;28;20734;-82
2021/03/16 04:11:19;;;;;;;18.05;3.00;;;4.70;85.40;;;;;;5048743;28;20708;-83
2021/03/16 04:13:46;;;;;;;26.80;3.53;;;4.70;85.10;;;;;;5049123;28;20419;-83
2021/03/16 04:16:13;;;;;;;16.02;2.55;;;4.70;85.10;;;;;;5050117;28;20384;-82
2021/03/16 04:18:40;;;;;;;25.77;2.30;;;4.70;85.50;;;;;;5049958;28;20378;-82
2021/03/16 04:21:06;;;;;;;18.27;2.35;;;4.70;84.70;;;;;;5048996;28;20489;-83
2021/03/16 04:23:32;;;;;;;29.88;3.50;;;4.80;84.50;;;;;;5048635;28;20382;-83
2021/03/16 04:25:58;;;;;;;20.27;2.75;;;4.80;84.70;;;;;;5049119;28;20381;-83
2021/03/16 04:28:25;;;;;;;23.65;3.15;;;4.70;84.80;;;;;;5049634;28;20874;-83
2021/03/16 04:30:54;;;;;;;26.50;2.80;;;4.80;84.50;;;;;;5050549;28;20444;-83
2021/03/16 04:33:20;;;;;;;16.10;2.77;;;4.90;83.60;;;;;;5050614;28;20378;-83
2021/03/16 04:35:46;;;;;;;18.70;3.03;;;4.90;83.40;;;;;;5050552;28;20382;-83
2021/03/16 04:38:12;;;;;;;21.83;3.05;;;4.80;83.70;;;;;;5047970;28;20723;-82
2021/03/16 04:40:37;;;;;;;13.53;2.10;;;4.80;83.90;;;;;;5049938;28;20427;-83
2021/03/16 04:43:05;;;;;;;17.67;2.63;;;4.80;83.70;;;;;;5049913;28;20467;-83
2021/03/16 04:45:30;;;;;;;20.88;2.25;;;4.80;83.10;;;;;;5051989;28;20859;-83
2021/03/16 04:47:56;;;;;;;12.47;1.90;;;4.80;82.80;;;;;;5053411;28;20377;-83
2021/03/16 04:50:21;;;;;;;21.00;2.50;;;4.70;82.90;;;;;;5054299;28;20397;-84
2021/03/16 04:52:47;;;;;;;19.92;2.38;;;4.80;82.40;;;;;;5053562;28;20380;-83
2021/03/16 04:55:13;;;;;;;15.30;2.40;;;4.70;82.70;;;;;;5053918;28;20451;-83
2021/03/16 04:57:39;;;;;;;16.00;2.10;;;4.70;81.80;;;;;;5052911;28;20378;-83
2021/03/16 05:00:05;;;;;;;18.70;2.20;;;4.80;80.40;;;;;;5053508;28;20405;-82
2021/03/16 05:02:31;;;;;;;17.08;2.50;;;4.80;81.20;;;;;;5053193;28;20885;-83
2021/03/16 05:04:56;;;;;;;14.90;2.00;;;4.70;81.40;;;;;;5053240;28;20381;-83
2021/03/16 05:07:22;;;;;;;12.60;2.20;;;4.70;81.40;;;;;;5053404;28;20378;-83
2021/03/16 05:09:47;;;;;;;14.53;2.07;;;4.80;81.20;;;;;;5053284;28;20432;-83
2021/03/16 05:12:13;;;;;;;12.98;2.50;;;4.90;80.80;;;;;;5053785;28;20842;-83
2021/03/16 05:14:38;;;;;;;12.57;2.83;;;4.80;81.30;;;;;;5052008;28;20409;-83
2021/03/16 05:17:04;;;;;;;14.37;2.50;;;4.90;81.30;;;;;;5053119;28;20378;-82
2021/03/16 05:19:30;;;;;;;15.13;2.20;;;4.80;82.00;;;;;;5052861;28;20408;-82
2021/03/16 05:21:55;;;;;;;18.40;2.73;;;4.80;82.30;;;;;;5053440;28;20381;-82
2021/03/16 05:24:21;;;;;;;16.47;2.73;;;4.80;82.80;;;;;;5053235;28;20378;-83
2021/03/16 05:26:46;;;;;;;9.67;2.03;;;4.70;82.80;;;;;;5051909;28;20388;-83
2021/03/16 05:29:12;;;;;;;13.40;2.67;;;4.70;83.40;;;;;;5053070;28;20377;-83
2021/03/16 05:31:38;;;;;;;20.25;3.72;;;4.70;83.20;;;;;;5053027;28;20377;-82
2021/03/16 05:34:03;;;;;;;23.27;3.10;;;4.70;83.20;;;;;;5053184;28;20370;-83
2021/03/16 05:36:29;;;;;;;17.53;2.77;;;4.70;83.00;;;;;;5051439;28;20840;-82
2021/03/16 05:38:54;;;;;;;18.80;3.23;;;4.70;83.10;;;;;;5053111;28;20481;-83
2021/03/16 05:41:21;;;;;;;24.33;3.63;;;4.60;83.80;;;;;;5052742;28;20374;-83
2021/03/16 05:43:47;;;;;;;16.20;2.88;;;4.70;83.20;;;;;;5053265;28;20464;-82
2021/03/16 05:46:13;;;;;;;20.00;2.80;;;4.70;83.30;;;;;;5052845;28;20464;-83
2021/03/16 05:48:40;;;;;;;15.57;2.28;;;4.70;83.10;;;;;;5051097;28;20485;-83
2021/03/16 05:51:06;;;;;;;21.00;3.60;;;4.70;83.00;;;;;;5051312;28;20393;-82
2021/03/16 05:53:32;;;;;;;17.70;3.20;;;4.70;82.80;;;;;;5052921;28;20377;-81
2021/03/16 05:55:59;;;;;;;13.50;2.65;;;4.70;82.80;;;;;;5051379;28;20370;-83
2021/03/16 05:58:25;;;;;;;23.33;4.95;;;4.80;82.60;;;;;;5051120;28;20378;-82
2021/03/16 06:00:51;;;;;;;17.70;3.10;;;4.70;83.40;;;;;;5051175;28;20407;-83
2021/03/16 06:03:17;;;;;;;17.83;2.92;;;4.70;83.50;;;;;;5051350;28;20798;-83
2021/03/16 06:05:43;;;;;;;15.63;2.70;;;4.80;82.80;;;;;;5052692;28;20370;-83
2021/03/16 06:08:08;;;;;;;22.20;3.35;;;4.80;83.20;;;;;;5050385;28;20462;-83
2021/03/16 06:10:34;;;;;;;13.57;2.38;;;4.70;83.40;;;;;;5052287;28;20377;-83
2021/03/16 06:13:14;;;;;;;12.32;2.30;;;4.70;83.80;;;;;;5052147;28;20816;-83
2021/03/16 06:15:42;;;;;;;17.83;2.42;;;4.70;83.90;;;;;;5052313;28;20512;-83
2021/03/16 06:18:10;;;;;;;18.37;2.40;;;4.90;82.30;;;;;;5050451;28;21016;-83
2021/03/16 06:20:36;;;;;;;18.07;2.67;;;4.80;82.60;;;;;;5052315;28;20815;-82
2021/03/16 06:23:13;;;;;;;10.60;2.03;;;4.80;83.30;;;;;;5051934;28;20377;-83
2021/03/16 06:25:40;;;;;;;20.00;2.75;;;4.70;83.40;;;;;;5050771;28;20440;-81
2021/03/16 06:28:12;;;;;;;16.73;4.38;;;4.80;84.00;;;;;;5050282;28;20386;-83
2021/03/16 06:30:38;;;;;;;13.47;2.50;;;4.90;84.00;;;;;;5051754;28;20397;-82
2021/03/16 06:33:16;;;;;;;18.98;3.17;;;4.80;84.50;;;;;;5051908;28;20377;-83
2021/03/16 06:35:41;;;;;;;14.95;3.13;;;4.80;84.60;;;;;;5051806;28;20853;-83
2021/03/16 06:38:09;;;;;;;16.60;3.07;;;4.90;84.90;;;;;;5051502;28;20401;-83
2021/03/16 06:40:35;;;;;;;17.30;2.47;;;4.80;85.20;;;;;;5051446;28;20428;-83
2021/03/16 06:43:11;;;;;;;21.23;3.30;;;4.90;85.40;;;;;;5051906;28;20381;-83
2021/03/16 06:45:39;;;;;;;17.20;3.13;;;4.90;85.40;;;;;;5050205;28;20397;-83
2021/03/16 06:48:18;;;;;;;17.13;3.53;;;4.90;85.50;;;;;;5051154;28;20377;-83
2021/03/16 06:50:44;;;;;;;26.13;3.90;;;4.90;85.70;;;;;;5051402;28;20386;-84
2021/03/16 06:53:15;;;;;;;21.13;3.30;;;4.90;85.10;;;;;;5051435;28;20461;-84
2021/03/16 06:55:53;;;;;;;20.73;2.93;;;4.90;85.00;;;;;;5051805;28;20757;-83
2021/03/16 06:58:27;;;;;;;19.15;3.53;;;4.90;84.50;;;;;;5050990;28;20719;-83
2021/03/16 07:01:04;;;;;;;16.10;2.15;;;4.90;84.00;;;;;;5051497;28;20408;-81
2021/03/16 07:03:31;;;;;;;20.63;2.35;;;4.90;81.90;;;;;;5051336;28;20443;-83
2021/03/16 07:06:16;;;;;;;9.70;1.65;;;4.90;81.70;;;;;;5051206;28;20398;-83
2021/03/16 07:08:43;;;;;;;15.40;2.30;;;5.00;79.90;;;;;;5049534;28;20814;-84
2021/03/16 07:11:14;;;;;;;15.03;2.10;;;5.00;79.70;;;;;;5048822;28;20385;-84
2021/03/16 07:13:41;;;;;;;9.63;2.28;;;5.00;79.10;;;;;;5050461;28;20841;-84
2021/03/16 07:16:08;;;;;;;10.18;2.53;;;5.10;79.70;;;;;;5049357;28;20733;-83
2021/03/16 07:18:36;;;;;;;13.82;1.90;;;5.10;79.00;;;;;;5048451;28;20384;-83
2021/03/16 07:21:06;;;;;;;10.80;2.40;;;5.10;79.50;;;;;;5049103;28;20441;-83
2021/03/16 07:23:48;;;;;;;17.48;3.00;;;5.20;79.20;;;;;;5051254;28;20420;-84
2021/03/16 07:26:14;;;;;;;13.75;2.13;;;5.30;79.50;;;;;;5050622;28;20380;-83
2021/03/16 07:28:44;;;;;;;14.07;2.90;;;5.40;80.10;;;;;;5050259;28;20418;-83
2021/03/16 07:31:09;;;;;;;13.55;3.17;;;5.50;80.60;;;;;;5050019;28;20397;-84
2021/03/16 07:33:36;;;;;;;18.25;2.90;;;5.60;81.30;;;;;;5050741;28;20377;-83
2021/03/16 07:36:02;;;;;;;19.42;2.80;;;5.50;81.40;;;;;;5050850;28;20394;-82
2021/03/16 07:38:28;;;;;;;17.40;3.00;;;5.50;81.20;;;;;;5050432;28;20412;-83
2021/03/16 07:40:54;;;;;;;16.60;3.20;;;5.50;80.30;;;;;;5050837;28;20409;-82
2021/03/16 07:43:31;;;;;;;12.90;2.80;;;5.40;79.90;;;;;;5050162;28;20415;-83
2021/03/16 07:46:17;;;;;;;11.50;2.10;;;5.40;80.00;;;;;;5050472;28;20753;-83
2021/03/16 07:48:45;;;;;;;10.50;2.13;;;5.40;80.00;;;;;;5049561;28;20369;-84
2021/03/16 07:51:17;;;;;;;18.95;3.13;;;5.40;80.00;;;;;;5049669;28;20724;-83
2021/03/16 07:53:57;;;;;;;13.00;2.60;;;5.40;80.10;;;;;;5050947;28;20447;-83
2021/03/16 07:56:26;;;;;;;22.40;3.08;;;5.60;80.20;;;;;;5050809;28;20390;-82
2021/03/16 07:58:51;;;;;;;21.45;2.42;;;5.80;79.20;;;;;;5050744;28;20389;-83
2021/03/16 08:01:17;;;;;;;15.20;2.42;;;5.70;80.20;;;;;;5050696;28;20404;-83
2021/03/16 08:03:43;;;;;;;20.57;3.57;;;5.60;80.70;;;;;;5050983;28;20457;-83
2021/03/16 08:06:31;;;;;;;14.03;2.40;;;5.50;81.90;;;;;;5049220;28;20472;-83
2021/03/16 08:08:57;;;;;;;15.70;2.70;;;5.50;81.70;;;;;;5049478;28;20460;-84
2021/03/16 08:11:42;;;;;;;14.20;2.58;;;5.60;81.60;;;;;;5049277;28;20385;-83
2021/03/16 08:14:08;;;;;;;14.90;2.60;;;5.70;82.00;;;;;;5050491;28;20378;-83
2021/03/16 08:16:35;;;;;;;13.60;2.90;;;5.60;81.40;;;;;;5050455;28;20425;-83
2021/03/16 08:19:18;;;;;;;14.75;2.45;;;5.50;81.20;;;;;;5051087;28;20440;-83
2021/03/16 08:21:45;;;;;;;19.17;2.92;;;5.40;80.60;;;;;;5054899;28;20373;-83
2021/03/16 08:24:13;;;;;;;17.05;3.08;;;5.40;81.20;;;;;;5054100;28;20373;-84
2021/03/16 08:26:49;;;;;;;18.17;3.00;;;5.60;80.60;;;;;;5054204;28;20419;-83
2021/03/16 08:29:16;;;;;;;13.73;2.88;;;5.60;80.20;;;;;;5052909;28;20771;-83
2021/03/16 08:31:42;;;;;;;12.98;2.83;;;5.70;79.90;;;;;;5052844;28;20384;-84
2021/03/16 08:34:09;;;;;;;20.83;3.07;;;5.70;79.90;;;;;;5054048;28;20439;-84
2021/03/16 08:36:44;;;;;;;23.85;4.60;;;5.70;79.40;;;;;;5053962;28;20460;-84
2021/03/16 08:39:25;;;;;;;16.40;4.03;;;5.60;80.40;;;;;;5052490;28;20417;-84
2021/03/16 08:41:53;;;;;;;14.63;2.80;;;5.70;79.70;;;;;;5053794;28;20477;-83
2021/03/16 08:44:18;;;;;;;18.70;4.15;;;5.70;79.40;;;;;;5054107;28;20373;-84
2021/03/16 08:46:44;;;;;;;16.73;3.40;;;5.80;78.80;;;;;;5053360;28;20392;-83
2021/03/16 08:49:15;;;;;;;11.82;3.30;;;5.80;78.20;;;;;;5054091;28;20370;-84
2021/03/16 08:51:41;;;;;;;13.20;2.78;;;5.70;77.50;;;;;;5053680;28;20761;-84
2021/03/16 08:54:07;;;;;;;12.93;3.40;;;5.90;78.50;;;;;;5053947;28;20430;-84
2021/03/16 08:56:32;;;;;;;16.17;3.20;;;5.90;78.00;;;;;;5053732;28;20377;-84
2021/03/16 08:59:03;;;;;;;13.50;2.33;;;5.90;77.40;;;;;;5053385;28;20391;-84
2021/03/16 09:01:31;;;;;;;11.75;1.92;;;5.90;76.70;;;;;;5052623;28;20691;-84
2021/03/16 09:04:07;;;;;;;16.08;2.97;;;5.80;76.10;;;;;;5052191;28;20480;-84
2021/03/16 09:06:32;;;;;;;20.02;4.32;;;5.80;76.60;;;;;;5053190;28;20715;-85
2021/03/16 09:08:58;;;;;;;13.82;2.70;;;5.80;77.60;;;;;;5052922;28;20374;-84
2021/03/16 09:11:36;;;;;;;13.63;2.80;;;5.90;76.90;;;;;;5052305;28;20381;-83
2021/03/16 09:14:11;;;;;;;16.33;3.05;;;6.50;74.60;;;;;;5052145;28;20726;-83
2021/03/16 09:16:55;;;;;;;11.95;3.13;;;7.20;73.40;;;;;;5051900;28;20401;-83
2021/03/16 09:19:26;;;;;;;8.68;1.42;;;7.40;70.30;;;;;;5051799;28;20405;-83
2021/03/16 09:21:54;;;;;;;11.87;1.70;;;7.30;69.90;;;;;;5053210;28;20386;-84
2021/03/16 09:24:22;;;;;;;11.82;1.80;;;7.30;69.40;;;;;;5051847;28;20397;-82
2021/03/16 09:26:57;;;;;;;8.95;1.73;;;7.30;70.80;;;;;;5051331;28;20394;-83
2021/03/16 09:29:25;;;;;;;8.23;1.77;;;7.20;69.00;;;;;;5053213;28;20386;-84
2021/03/16 09:31:51;;;;;;;9.32;1.45;;;6.90;67.60;;;;;;5051647;28;20866;-83
2021/03/16 09:34:17;;;;;;;7.70;1.83;;;7.20;68.70;;;;;;5053116;28;20377;-83
2021/03/16 09:36:42;;;;;;;7.85;1.60;;;7.20;69.80;;;;;;5052322;28;20394;-85
2021/03/16 09:39:10;;;;;;;7.43;1.90;;;6.90;68.40;;;;;;5052811;28;20397;-82
2021/03/16 09:41:35;;;;;;;7.03;2.17;;;6.80;69.60;;;;;;5052790;28;20386;-82
2021/03/16 09:44:01;;;;;;;8.85;2.28;;;6.90;70.80;;;;;;5052815;28;20392;-82
2021/03/16 09:46:27;;;;;;;16.10;1.88;;;6.80;69.40;;;;;;5052433;28;20481;-84
2021/03/16 09:48:55;;;;;;;7.53;1.65;;;6.90;68.80;;;;;;5052178;28;20461;-84
2021/03/16 09:51:26;;;;;;;9.27;2.00;;;7.20;69.40;;;;;;5052644;28;20381;-83
2021/03/16 09:53:56;;;;;;;11.48;2.60;;;6.90;69.00;;;;;;5051954;28;20401;-86
2021/03/16 09:56:33;;;;;;;8.57;1.90;;;7.10;69.10;;;;;;5052554;28;20789;-86
2021/03/16 09:59:02;;;;;;;10.90;1.77;;;7.00;69.60;;;;;;5051136;28;20393;-84
2021/03/16 10:01:28;;;;;;;12.20;1.67;;;7.10;70.40;;;;;;5052611;28;20951;-81
2021/03/16 10:03:58;;;;;;;8.30;1.90;;;7.10;71.20;;;;;;5051952;28;20465;-83
2021/03/16 10:06:35;;;;;;;15.02;2.67;;;7.30;71.80;;;;;;5050583;28;20417;-82
2021/03/16 10:09:12;;;;;;;13.20;2.28;;;6.90;72.30;;;;;;5052226;28;20397;-81
2021/03/16 10:11:37;;;;;;;7.78;1.83;;;7.10;73.10;;;;;;5050479;28;20390;-80
2021/03/16 10:14:03;;;;;;;11.25;2.10;;;7.30;72.00;;;;;;5052434;28;20528;-80
2021/03/16 10:16:30;;;;;;;9.13;1.92;;;7.40;72.50;;;;;;5052170;28;20727;-83
2021/03/16 10:18:56;;;;;;;10.40;2.00;;;7.50;72.00;;;;;;5051460;28;20389;-84
2021/03/16 10:21:33;;;;;;;6.63;1.80;;;7.20;73.00;;;;;;5051548;28;20487;-84
2021/03/16 10:24:01;;;;;;;11.97;2.23;;;7.60;71.70;;;;;;5051945;28;20396;-82
2021/03/16 10:26:27;;;;;;;9.50;1.75;;;7.80;71.80;;;;;;5051083;28;20727;-83
2021/03/16 10:28:52;;;;;;;8.77;2.17;;;8.10;72.10;;;;;;5049853;28;20397;-82
2021/03/16 10:31:26;;;;;;;8.93;1.30;;;8.40;70.10;;;;;;5051763;28;20424;-83
2021/03/16 10:33:53;;;;;;;10.55;1.55;;;8.20;67.10;;;;;;5051771;28;20391;-82
2021/03/16 10:36:23;;;;;;;7.40;1.60;;;8.00;68.30;;;;;;5051937;28;20413;-84
2021/03/16 10:38:49;;;;;;;5.65;1.40;;;7.80;67.90;;;;;;5050333;28;20409;-84
2021/03/16 10:41:16;;;;;;;9.27;1.35;;;8.10;67.70;;;;;;5050231;28;20462;-80
2021/03/16 10:43:42;;;;;;;8.43;1.30;;;8.90;68.80;;;;;;5050366;28;20742;-81
2021/03/16 10:46:08;;;;;;;12.77;1.90;;;8.90;64.10;;;;;;5051888;28;20381;-81
2021/03/16 10:48:34;;;;;;;6.73;2.10;;;8.30;67.90;;;;;;5051033;28;20393;-83
2021/03/16 10:50:59;;;;;;;6.97;1.43;;;8.30;67.70;;;;;;5051857;28;20468;-79
2021/03/16 10:53:25;;;;;;;11.40;2.30;;;7.70;68.20;;;;;;5051303;28;20381;-84
2021/03/16 10:55:50;;;;;;;7.30;1.80;;;7.60;67.10;;;;;;5051440;28;20393;-84
2021/03/16 10:58:16;;;;;;;6.70;1.50;;;7.40;67.20;;;;;;5050860;28;20432;-80
2021/03/16 11:00:41;;;;;;;8.55;1.80;;;7.40;66.70;;;;;;5051010;28;20754;-79
2021/03/16 11:03:07;;;;;;;8.20;1.38;;;7.30;68.30;;;;;;5050449;28;20754;-84
2021/03/16 11:05:34;;;;;;;19.23;1.73;;;7.20;69.90;;;;;;5050976;28;20409;-83
2021/03/16 11:07:59;;;;;;;7.05;2.20;;;7.00;72.50;;;;;;5050360;28;20385;-82
2021/03/16 11:10:25;;;;;;;7.07;2.55;;;6.10;80.20;;;;;;5050413;28;20393;-78
2021/03/16 11:12:51;;;;;;;8.80;1.90;;;5.70;84.10;;;;;;5050750;28;20392;-79
2021/03/16 11:15:16;;;;;;;5.32;1.48;;;5.50;85.50;;;;;;5050682;28;20416;-80
2021/03/16 11:17:44;;;;;;;3.95;1.23;;;5.70;84.90;;;;;;5050728;28;20373;-79
2021/03/16 11:20:10;;;;;;;8.75;2.67;;;5.80;85.10;;;;;;5050879;28;20405;-82
2021/03/16 11:22:35;;;;;;;5.72;1.85;;;6.00;85.90;;;;;;5050498;28;20401;-83
2021/03/16 11:25:01;;;;;;;4.03;2.03;;;6.40;85.50;;;;;;5050574;28;20723;-80
2021/03/16 11:27:26;;;;;;;3.50;1.60;;;6.80;86.40;;;;;;5048424;28;20756;-83
2021/03/16 11:29:52;;;;;;;5.78;1.55;;;6.50;81.00;;;;;;5049236;28;20484;-83
2021/03/16 11:32:18;;;;;;;2.97;1.42;;;6.80;81.80;;;;;;5050164;28;20386;-81
2021/03/16 11:34:43;;;;;;;4.95;1.40;;;6.80;81.70;;;;;;5050458;28;20389;-80
2021/03/16 11:37:09;;;;;;;7.90;1.90;;;6.80;79.20;;;;;;5049243;28;20878;-82
2021/03/16 11:39:34;;;;;;;4.60;1.67;;;6.80;80.90;;;;;;5049411;28;20413;-82
2021/03/16 11:42:00;;;;;;;7.20;2.33;;;6.90;81.60;;;;;;5050521;28;20385;-82
2021/03/16 11:44:25;;;;;;;7.70;1.63;;;7.20;81.00;;;;;;5050708;28;20712;-82
2021/03/16 11:46:51;;;;;;;8.93;1.90;;;7.20;79.90;;;;;;5049896;28;20775;-82
2021/03/16 11:49:17;;;;;;;9.52;2.17;;;7.10;80.30;;;;;;5050248;28;20415;-83
2021/03/16 11:51:43;;;;;;;8.20;2.60;;;7.00;80.00;;;;;;5048904;28;20397;-82
2021/03/16 11:54:09;;;;;;;8.35;2.30;;;7.00;80.50;;;;;;5049256;28;20602;-81
2021/03/16 11:56:35;;;;;;;6.93;2.15;;;7.10;80.10;;;;;;5050282;28;20369;-82
2021/03/16 11:59:00;;;;;;;10.35;2.47;;;7.00;80.00;;;;;;5048868;28;20485;-81
2021/03/16 12:01:26;;;;;;;10.32;2.78;;;7.00;79.10;;;;;;5050405;28;20441;-81
2021/03/16 12:03:51;;;;;;;8.00;2.30;;;7.00;78.30;;;;;;5049898;28;20738;-83
2021/03/16 12:06:17;;;;;;;7.70;2.17;;;7.00;78.90;;;;;;5050467;28;20374;-82
2021/03/16 12:08:42;;;;;;;7.93;2.63;;;7.40;79.90;;;;;;5048306;28;20469;-82
2021/03/16 12:11:08;;;;;;;7.38;2.50;;;7.40;77.60;;;;;;5050288;28;20739;-82
2021/03/16 12:13:33;;;;;;;8.43;2.40;;;7.10;77.80;;;;;;5050125;28;20382;-82
2021/03/16 12:15:59;;;;;;;11.13;2.92;;;7.20;78.10;;;;;;5049027;28;20842;-82
2021/03/16 12:18:25;;;;;;;7.63;2.42;;;7.10;77.90;;;;;;5049624;28;20739;-82
2021/03/16 12:20:51;;;;;;;8.32;2.28;;;7.30;78.30;;;;;;5050280;28;20428;-81
2021/03/16 12:23:17;;;;;;;10.32;2.30;;;7.20;79.00;;;;;;5049986;28;20385;-82
2021/03/16 12:25:44;;;;;;;14.35;2.53;;;7.40;77.70;;;;;;5049724;28;20382;-82
2021/03/16 12:28:10;;;;;;;8.75;2.47;;;7.40;78.60;;;;;;5049904;28;20858;-83
2021/03/16 12:30:36;;;;;;;11.63;2.55;;;7.30;76.40;;;;;;5048611;28;20446;-82
2021/03/16 12:33:03;;;;;;;12.00;2.73;;;7.20;76.80;;;;;;5050172;28;20394;-82
2021/03/16 12:35:28;;;;;;;8.70;3.08;;;7.40;77.50;;;;;;5049895;28;20851;-83
2021/03/16 12:37:54;;;;;;;10.32;2.72;;;7.20;76.80;;;;;;5049701;28;20506;-81
2021/03/16 12:40:19;;;;;;;8.00;2.83;;;7.20;77.10;;;;;;5051385;28;20409;-83
2021/03/16 12:42:45;;;;;;;13.57;2.70;;;7.20;78.30;;;;;;5049548;28;20382;-82
2021/03/16 12:45:11;;;;;;;9.40;2.67;;;7.40;78.70;;;;;;5049424;28;20377;-82
2021/03/16 12:47:36;;;;;;;10.10;3.00;;;7.20;76.30;;;;;;5049420;28;20513;-83
2021/03/16 12:50:03;;;;;;;15.13;4.10;;;7.10;77.70;;;;;;5048715;28;20481;-81
2021/03/16 12:52:29;;;;;;;5.53;1.80;;;7.20;77.40;;;;;;5048873;28;20390;-83